createdAt,value
2022-10-30T00:02:09.036Z,16.48
2022-10-30T00:04:36.632Z,16.33
2022-10-30T00:07:05.517Z,16.29
2022-10-30T00:09:33.058Z,15.93
2022-10-30T00:12:01.035Z,16.17
2022-10-30T00:14:28.568Z,16.21
2022-10-30T00:16:56.085Z,16.24
2022-10-30T00:19:23.711Z,16.19
2022-10-30T00:21:51.251Z,16.22
2022-10-30T00:24:20.171Z,16.19
2022-10-30T00:26:48.069Z,16.15
2022-10-30T00:29:15.683Z,16.17
2022-10-30T00:31:43.191Z,16.10
2022-10-30T00:34:10.710Z,16.11
2022-10-30T00:36:38.231Z,16.10
2022-10-30T00:39:06.212Z,16.07
2022-10-30T00:41:35.138Z,16.25
2022-10-30T00:44:02.658Z,16.30
2022-10-30T00:46:34.057Z,16.07
2022-10-30T00:49:06.597Z,16.20
2022-10-30T00:51:34.534Z,16.15
2022-10-30T00:54:07.167Z,16.18
2022-10-30T00:56:37.255Z,16.25
2022-10-30T00:59:09.282Z,16.33
2022-10-30T01:01:40.919Z,16.21
2022-10-30T01:04:08.731Z,16.30
2022-10-30T01:06:39.858Z,16.09
2022-10-30T01:09:07.662Z,16.23
2022-10-30T01:11:36.607Z,16.29
2022-10-30T01:14:08.093Z,16.31
2022-10-30T01:16:53.553Z,16.31
2022-10-30T01:19:29.179Z,16.33
2022-10-30T01:22:14.605Z,16.32
2022-10-30T01:24:51.667Z,16.25
2022-10-30T01:27:36.784Z,16.22
2022-10-30T01:30:17.503Z,16.20
2022-10-30T01:32:56.521Z,16.19
2022-10-30T01:35:33.475Z,16.23
2022-10-30T01:38:07.659Z,16.21
2022-10-30T01:40:35.368Z,16.04
2022-10-30T01:43:04.299Z,15.96
2022-10-30T01:45:54.455Z,16.07
2022-10-30T01:48:40.894Z,15.73
2022-10-30T01:51:21.128Z,15.95
2022-10-30T01:53:58.165Z,16.05
2022-10-30T01:56:37.407Z,16.25
2022-10-30T01:59:12.155Z,16.32
2022-10-30T02:01:40.534Z,16.12
2022-10-30T02:04:09.263Z,16.03
2022-10-30T02:06:37.315Z,16.16
2022-10-30T02:09:06.000Z,16.15
2022-10-30T02:11:34.988Z,16.18
2022-10-30T02:14:08.028Z,16.31
2022-10-30T02:16:38.456Z,16.24
2022-10-30T02:19:07.534Z,16.25
2022-10-30T02:21:36.437Z,16.27
2022-10-30T02:24:03.946Z,16.26
2022-10-30T02:26:31.437Z,16.23
2022-10-30T02:28:58.960Z,16.04
2022-10-30T02:31:26.511Z,16.24
2022-10-30T02:33:54.036Z,16.21
2022-10-30T02:36:21.588Z,16.35
2022-10-30T02:38:50.426Z,16.39
2022-10-30T02:41:17.955Z,16.42
2022-10-30T02:43:45.471Z,16.37
2022-10-30T02:46:12.963Z,16.36
2022-10-30T02:48:40.549Z,16.45
2022-10-30T02:51:08.072Z,16.47
2022-10-30T02:53:35.765Z,16.50
2022-10-30T02:56:10.132Z,16.55
2022-10-30T02:58:38.073Z,16.46
2022-10-30T03:01:09.843Z,16.42
2022-10-30T03:03:37.754Z,16.33
2022-10-30T03:06:07.954Z,16.32
2022-10-30T03:08:36.135Z,16.33
2022-10-30T03:11:05.107Z,16.29
2022-10-30T03:13:35.379Z,16.18
2022-10-30T03:16:04.435Z,16.09
2022-10-30T03:18:32.006Z,15.99
2022-10-30T03:21:00.341Z,15.85
2022-10-30T03:23:28.782Z,15.78
2022-10-30T03:25:58.023Z,15.59
2022-10-30T03:28:27.586Z,15.47
2022-10-30T03:31:01.549Z,15.57
2022-10-30T03:33:29.462Z,15.51
2022-10-30T03:35:56.988Z,15.46
2022-10-30T03:38:24.708Z,15.28
2022-10-30T03:40:52.589Z,15.04
2022-10-30T03:43:20.267Z,15.13
2022-10-30T03:45:49.354Z,15.05
2022-10-30T03:48:19.443Z,15.08
2022-10-30T03:50:47.374Z,15.31
2022-10-30T03:53:15.591Z,15.37
2022-10-30T03:55:43.382Z,15.38
2022-10-30T03:58:10.951Z,15.34
2022-10-30T04:00:38.464Z,15.33
2022-10-30T04:03:08.341Z,15.35
2022-10-30T04:05:38.282Z,15.33
2022-10-30T04:08:08.366Z,15.32
2022-10-30T04:10:36.648Z,15.29
2022-10-30T04:13:06.250Z,15.23
2022-10-30T04:15:34.236Z,15.01
2022-10-30T04:18:02.553Z,15.00
2022-10-30T04:20:30.535Z,15.08
2022-10-30T04:23:00.700Z,14.94
2022-10-30T04:25:29.070Z,14.98
2022-10-30T04:27:56.972Z,14.96
2022-10-30T04:30:27.145Z,15.22
2022-10-30T04:32:56.814Z,15.29
2022-10-30T04:35:27.910Z,15.30
2022-10-30T04:37:55.914Z,15.28
2022-10-30T04:40:26.868Z,15.23
2022-10-30T04:42:54.781Z,15.19
2022-10-30T04:45:22.825Z,15.26
2022-10-30T04:47:50.376Z,15.26
2022-10-30T04:50:18.524Z,15.16
2022-10-30T04:52:46.161Z,15.13
2022-10-30T04:55:13.681Z,15.02
2022-10-30T04:57:42.866Z,14.95
2022-10-30T05:00:12.512Z,14.89
2022-10-30T05:02:40.287Z,14.91
2022-10-30T05:05:08.630Z,14.98
2022-10-30T05:07:36.158Z,14.95
2022-10-30T05:10:03.725Z,14.87
2022-10-30T05:12:31.251Z,14.87
2022-10-30T05:15:00.123Z,14.82
2022-10-30T05:17:28.052Z,14.70
2022-10-30T05:19:56.671Z,14.58
2022-10-30T05:22:24.192Z,14.48
2022-10-30T05:24:51.698Z,14.52
2022-10-30T05:27:19.221Z,14.42
2022-10-30T05:29:46.735Z,14.43
2022-10-30T05:32:15.668Z,14.44
2022-10-30T05:34:43.316Z,14.56
2022-10-30T05:37:10.816Z,14.50
2022-10-30T05:39:38.302Z,14.59
2022-10-30T05:42:08.526Z,14.62
2022-10-30T05:44:59.426Z,14.59
2022-10-30T05:47:26.224Z,14.45
2022-10-30T05:49:53.764Z,14.52
2022-10-30T05:52:21.280Z,14.25
2022-10-30T05:54:48.786Z,14.27
2022-10-30T05:57:16.286Z,14.39
2022-10-30T05:59:43.798Z,14.33
2022-10-30T06:02:11.360Z,14.35
2022-10-30T06:04:40.306Z,14.48
2022-10-30T06:07:07.825Z,14.62
2022-10-30T06:09:35.301Z,14.43
2022-10-30T06:12:02.905Z,14.48
2022-10-30T06:14:30.455Z,14.66
2022-10-30T06:16:58.134Z,14.60
2022-10-30T06:19:25.657Z,14.60
2022-10-30T06:21:54.797Z,14.61
2022-10-30T06:24:22.314Z,14.87
2022-10-30T06:26:50.993Z,15.07
2022-10-30T06:29:18.660Z,15.26
2022-10-30T06:31:46.351Z,15.35
2022-10-30T06:34:13.845Z,15.37
2022-10-30T06:36:41.352Z,15.48
2022-10-30T06:39:10.226Z,15.62
2022-10-30T06:41:37.912Z,15.58
2022-10-30T06:44:05.641Z,15.65
2022-10-30T06:46:33.971Z,15.61
2022-10-30T06:49:01.611Z,15.40
2022-10-30T06:51:29.416Z,15.10
2022-10-30T06:53:56.907Z,15.22
2022-10-30T06:56:25.761Z,15.20
2022-10-30T06:58:53.249Z,15.23
2022-10-30T07:01:20.816Z,15.17
2022-10-30T07:03:48.383Z,15.57
2022-10-30T07:06:15.921Z,15.98
2022-10-30T07:08:43.436Z,16.24
2022-10-30T07:11:10.956Z,16.30
2022-10-30T07:13:39.829Z,16.28
2022-10-30T07:16:07.635Z,16.81
2022-10-30T07:18:35.158Z,17.19
2022-10-30T07:21:02.659Z,17.13
2022-10-30T07:23:30.169Z,17.38
2022-10-30T07:26:03.339Z,17.56
2022-10-30T07:28:32.409Z,17.55
2022-10-30T07:31:01.301Z,17.54
2022-10-30T07:33:28.813Z,17.69
2022-10-30T07:35:56.323Z,17.73
2022-10-30T07:38:24.039Z,18.13
2022-10-30T07:40:53.510Z,18.72
2022-10-30T07:43:21.126Z,19.23
2022-10-30T07:45:48.686Z,19.82
2022-10-30T07:48:17.570Z,20.41
2022-10-30T07:50:45.088Z,20.76
2022-10-30T07:53:12.640Z,21.09
2022-10-30T07:55:40.173Z,21.38
2022-10-30T07:58:07.696Z,21.33
2022-10-30T08:00:35.214Z,21.54
2022-10-30T08:03:03.047Z,21.29
2022-10-30T08:05:32.161Z,21.02
2022-10-30T08:08:00.040Z,20.86
2022-10-30T08:10:27.971Z,20.92
2022-10-30T08:12:55.482Z,21.15
2022-10-30T08:15:23.746Z,21.41
2022-10-30T08:17:51.731Z,21.75
2022-10-30T08:20:21.673Z,22.07
2022-10-30T08:22:51.645Z,22.41
2022-10-30T08:25:21.091Z,22.80
2022-10-30T08:27:54.844Z,22.89
2022-10-30T08:30:22.882Z,22.91
2022-10-30T08:32:50.421Z,23.39
2022-10-30T08:35:19.989Z,23.72
2022-10-30T08:37:47.991Z,24.01
2022-10-30T08:40:17.015Z,24.04
2022-10-30T08:42:51.424Z,24.23
2022-10-30T08:45:19.459Z,24.68
2022-10-30T08:47:46.978Z,24.68
2022-10-30T08:50:14.754Z,24.33
2022-10-30T08:52:42.292Z,24.10
2022-10-30T08:55:10.255Z,24.22
2022-10-30T08:57:39.110Z,24.19
2022-10-30T09:00:07.879Z,24.05
2022-10-30T09:02:39.312Z,24.07
2022-10-30T09:05:07.605Z,23.86
2022-10-30T09:07:35.119Z,23.92
2022-10-30T09:10:02.965Z,23.69
2022-10-30T09:12:30.500Z,23.61
2022-10-30T09:14:59.335Z,23.72
2022-10-30T09:17:26.943Z,24.01
2022-10-30T09:19:54.491Z,24.13
2022-10-30T09:22:22.043Z,24.08
2022-10-30T09:24:49.583Z,23.96
2022-10-30T09:27:17.203Z,24.21
2022-10-30T09:29:44.686Z,24.40
2022-10-30T09:32:13.533Z,24.22
2022-10-30T09:34:41.043Z,24.14
2022-10-30T09:37:08.536Z,24.23
2022-10-30T09:39:36.051Z,24.42
2022-10-30T09:42:27.294Z,24.53
2022-10-30T09:45:28.186Z,24.68
2022-10-30T09:48:07.496Z,25.04
2022-10-30T09:50:41.128Z,24.77
2022-10-30T09:53:16.462Z,24.45
2022-10-30T09:55:52.135Z,24.38
2022-10-30T09:58:27.186Z,24.43
2022-10-30T10:01:07.140Z,24.56
2022-10-30T10:03:49.782Z,24.71
2022-10-30T10:06:21.066Z,24.91
2022-10-30T10:08:53.055Z,25.23
2022-10-30T10:11:26.199Z,25.39
2022-10-30T10:13:58.673Z,26.14
2022-10-30T10:16:30.447Z,26.46
2022-10-30T10:19:06.975Z,26.25
2022-10-30T10:21:39.086Z,26.09
2022-10-30T10:24:19.719Z,26.60
2022-10-30T10:26:50.294Z,26.87
2022-10-30T10:29:33.013Z,27.06
2022-10-30T10:32:14.098Z,27.41
2022-10-30T10:34:54.450Z,27.68
2022-10-30T10:37:32.610Z,28.18
2022-10-30T10:40:21.660Z,28.50
2022-10-30T10:42:59.039Z,28.68
2022-10-30T10:45:35.044Z,28.20
2022-10-30T10:48:23.761Z,27.89
2022-10-30T10:50:57.162Z,27.64
2022-10-30T10:53:30.456Z,27.95
2022-10-30T10:56:00.748Z,27.26
2022-10-30T10:58:33.032Z,27.79
2022-10-30T11:01:01.412Z,27.42
2022-10-30T11:03:39.164Z,28.34
2022-10-30T11:06:21.029Z,29.15
2022-10-30T11:08:49.711Z,29.45
2022-10-30T11:11:17.255Z,29.57
2022-10-30T11:13:45.380Z,29.37
2022-10-30T11:16:25.500Z,29.45
2022-10-30T11:18:57.922Z,29.26
2022-10-30T11:21:28.831Z,29.27
2022-10-30T11:23:56.386Z,28.85
2022-10-30T11:26:33.379Z,28.85
2022-10-30T11:29:05.622Z,28.07
2022-10-30T11:31:38.697Z,28.22
2022-10-30T11:34:24.879Z,28.13
2022-10-30T11:36:54.953Z,28.61
2022-10-30T11:39:24.391Z,29.04
2022-10-30T11:41:59.406Z,29.85
2022-10-30T11:44:31.881Z,30.48
2022-10-30T11:46:59.800Z,30.49
2022-10-30T11:49:34.849Z,30.56
2022-10-30T11:52:05.326Z,30.45
2022-10-30T11:54:37.399Z,30.34
2022-10-30T11:57:05.858Z,30.62
2022-10-30T11:59:33.418Z,30.63
2022-10-30T12:02:03.843Z,30.78
2022-10-30T12:04:32.948Z,31.45
2022-10-30T12:07:20.652Z,32.08
2022-10-30T12:09:49.051Z,32.22
2022-10-30T12:12:24.443Z,32.26
2022-10-30T12:14:53.158Z,32.18
2022-10-30T12:17:22.440Z,31.58
2022-10-30T12:19:52.355Z,31.20
2022-10-30T12:22:30.148Z,30.92
2022-10-30T12:24:58.477Z,31.12
2022-10-30T12:27:26.723Z,31.00
2022-10-30T12:30:09.656Z,31.40
2022-10-30T12:32:44.946Z,31.78
2022-10-30T12:35:41.825Z,31.88
2022-10-30T12:38:18.682Z,31.62
2022-10-30T12:41:00.770Z,31.69
2022-10-30T12:43:29.171Z,31.34
2022-10-30T12:46:08.081Z,31.35
2022-10-30T12:48:42.517Z,31.56
2022-10-30T12:51:21.372Z,31.22
2022-10-30T12:53:59.017Z,31.00
2022-10-30T12:56:31.159Z,30.96
2022-10-30T12:59:13.314Z,30.87
2022-10-30T13:01:49.075Z,30.28
2022-10-30T13:04:19.856Z,30.53
2022-10-30T13:06:53.415Z,30.17
2022-10-30T13:09:28.374Z,30.08
2022-10-30T13:12:03.141Z,29.88
2022-10-30T13:14:36.090Z,29.46
2022-10-30T13:17:03.596Z,29.25
2022-10-30T13:19:31.139Z,29.40
2022-10-30T13:22:03.801Z,29.27
2022-10-30T13:24:45.335Z,28.87
2022-10-30T13:27:22.182Z,29.03
2022-10-30T13:30:01.359Z,29.29
2022-10-30T13:32:39.893Z,29.34
2022-10-30T13:35:22.133Z,29.46
2022-10-30T13:37:59.732Z,29.62
2022-10-30T13:40:33.593Z,29.30
2022-10-30T13:43:15.657Z,29.30
2022-10-30T13:45:56.798Z,29.25
2022-10-30T13:48:34.455Z,28.67
2022-10-30T13:51:23.737Z,27.91
2022-10-30T13:54:03.009Z,27.38
2022-10-30T13:56:32.855Z,26.67
2022-10-30T13:59:13.006Z,26.32
2022-10-30T14:01:44.529Z,26.21
2022-10-30T14:04:18.640Z,26.19
2022-10-30T14:06:55.575Z,26.15
2022-10-30T14:09:32.658Z,25.98
2022-10-30T14:12:41.376Z,25.81
2022-10-30T14:15:16.827Z,25.61
2022-10-30T14:18:17.740Z,25.43
2022-10-30T14:20:47.245Z,25.39
2022-10-30T14:23:16.409Z,25.09
2022-10-30T14:25:44.037Z,25.01
2022-10-30T14:28:21.711Z,25.03
2022-10-30T14:30:49.229Z,24.81
2022-10-30T14:33:35.722Z,24.56
2022-10-30T14:36:22.068Z,24.39
2022-10-30T14:39:22.707Z,24.50
2022-10-30T14:42:01.661Z,24.49
2022-10-30T14:44:50.498Z,24.55
2022-10-30T14:47:47.460Z,24.50
2022-10-30T14:50:20.930Z,24.17
2022-10-30T14:53:03.086Z,23.83
2022-10-30T14:55:34.711Z,23.73
2022-10-30T14:58:20.225Z,23.55
2022-10-30T15:00:49.353Z,23.38
2022-10-30T15:03:26.568Z,23.16
2022-10-30T15:05:58.565Z,23.20
2022-10-30T15:08:47.007Z,23.11
2022-10-30T15:11:32.109Z,23.06
2022-10-30T15:14:03.343Z,22.91
2022-10-30T15:16:37.924Z,22.66
2022-10-30T15:19:07.770Z,22.38
2022-10-30T15:21:49.466Z,22.17
2022-10-30T15:24:18.919Z,22.10
2022-10-30T15:26:50.413Z,22.10
2022-10-30T15:29:20.421Z,21.97
2022-10-30T15:32:00.320Z,21.86
2022-10-30T15:34:28.957Z,21.66
2022-10-30T15:36:56.937Z,21.46
2022-10-30T15:39:24.882Z,21.23
2022-10-30T15:41:55.431Z,21.10
2022-10-30T15:44:25.575Z,20.83
2022-10-30T15:46:54.903Z,20.67
2022-10-30T15:49:30.727Z,20.50
2022-10-30T15:51:58.467Z,20.38
2022-10-30T15:54:28.378Z,20.21
2022-10-30T15:59:52.640Z,19.87
2022-10-30T16:02:22.507Z,19.63
2022-10-30T16:04:51.707Z,19.38
2022-10-30T16:07:22.262Z,19.20
2022-10-30T16:09:54.534Z,18.97
2022-10-30T16:12:24.275Z,18.90
2022-10-30T16:14:51.894Z,18.89
2022-10-30T16:17:20.312Z,18.72
2022-10-30T16:19:51.474Z,18.65
2022-10-30T16:22:25.705Z,18.57
2022-10-30T16:24:54.327Z,18.33
2022-10-30T16:27:24.193Z,18.13
2022-10-30T16:29:53.906Z,18.22
2022-10-30T16:32:24.886Z,18.17
2022-10-30T16:34:57.229Z,17.90
2022-10-30T16:37:29.142Z,17.96
2022-10-30T16:39:57.381Z,17.95
2022-10-30T16:42:26.970Z,18.00
2022-10-30T16:45:26.737Z,17.87
2022-10-30T16:47:58.271Z,17.65
2022-10-30T16:50:33.983Z,17.45
2022-10-30T16:53:08.032Z,17.30
2022-10-30T16:55:38.508Z,17.06
2022-10-30T16:58:06.147Z,17.04
2022-10-30T17:00:36.679Z,17.44
2022-10-30T17:03:09.339Z,16.92
2022-10-30T17:05:37.841Z,16.94
2022-10-30T17:08:26.346Z,16.78
2022-10-30T17:10:58.876Z,16.86
2022-10-30T17:13:37.538Z,17.16
2022-10-30T17:16:25.308Z,17.12
2022-10-30T17:18:54.554Z,16.97
2022-10-30T17:21:24.234Z,17.14
2022-10-30T17:23:55.557Z,17.18
2022-10-30T17:26:23.233Z,17.09
2022-10-30T17:28:50.903Z,16.95
2022-10-30T17:31:24.533Z,16.85
2022-10-30T17:34:14.832Z,17.01
2022-10-30T17:36:43.481Z,16.84
2022-10-30T17:39:12.581Z,16.83
2022-10-30T17:41:40.979Z,16.78
2022-10-30T17:44:16.086Z,16.61
2022-10-30T17:46:43.975Z,16.26
2022-10-30T17:49:24.481Z,16.01
2022-10-30T17:51:51.996Z,16.23
2022-10-30T17:54:20.871Z,16.37
2022-10-30T17:56:48.417Z,16.20
2022-10-30T17:59:15.946Z,16.23
2022-10-30T18:01:43.714Z,16.37
2022-10-30T18:04:20.511Z,16.38
2022-10-30T18:06:48.610Z,16.35
2022-10-30T18:09:16.273Z,16.28
2022-10-30T18:11:45.127Z,16.13
2022-10-30T18:14:13.155Z,15.88
2022-10-30T18:16:40.711Z,15.96
2022-10-30T18:19:11.522Z,16.06
2022-10-30T18:21:39.411Z,16.07
2022-10-30T18:24:12.274Z,16.07
2022-10-30T18:26:40.922Z,15.80
2022-10-30T18:29:10.308Z,15.47
2022-10-30T18:31:38.941Z,15.66
2022-10-30T18:34:14.849Z,15.36
2022-10-30T18:36:42.418Z,15.63
2022-10-30T18:39:10.850Z,15.70
2022-10-30T18:41:41.790Z,15.73
2022-10-30T18:44:15.299Z,15.76
2022-10-30T18:46:42.843Z,15.71
2022-10-30T18:49:10.392Z,15.61
2022-10-30T18:51:38.192Z,15.66
2022-10-30T18:54:12.758Z,15.65
2022-10-30T18:56:40.268Z,15.51
2022-10-30T18:59:07.849Z,15.44
2022-10-30T19:01:37.356Z,15.52
2022-10-30T19:04:09.928Z,15.47
2022-10-30T19:06:38.695Z,15.32
2022-10-30T19:09:06.450Z,15.09
2022-10-30T19:11:36.261Z,15.08
2022-10-30T19:14:06.567Z,15.05
2022-10-30T19:16:34.069Z,15.17
2022-10-30T19:19:02.943Z,14.82
2022-10-30T19:21:33.378Z,14.85
2022-10-30T19:24:02.375Z,15.02
2022-10-30T19:26:29.962Z,15.05
2022-10-30T19:28:57.528Z,14.94
2022-10-30T19:31:25.030Z,14.85
2022-10-30T19:33:57.531Z,15.03
2022-10-30T19:36:31.797Z,15.04
2022-10-30T19:39:04.222Z,14.94
2022-10-30T19:41:34.895Z,15.02
2022-10-30T19:44:02.381Z,15.00
2022-10-30T19:46:29.888Z,14.89
2022-10-30T19:48:58.984Z,14.81
2022-10-30T19:51:27.562Z,14.78
2022-10-30T19:53:56.805Z,14.80
2022-10-30T19:56:24.811Z,14.75
2022-10-30T19:58:52.348Z,14.75
2022-10-30T20:01:19.948Z,14.72
2022-10-30T20:03:47.510Z,14.70
2022-10-30T20:06:15.628Z,14.68
2022-10-30T20:08:43.190Z,14.69
2022-10-30T20:11:12.050Z,14.63
2022-10-30T20:13:39.615Z,14.52
2022-10-30T20:16:07.885Z,14.45
2022-10-30T20:18:36.752Z,14.33
2022-10-30T20:21:08.119Z,14.25
2022-10-30T20:23:35.687Z,14.26
2022-10-30T20:26:05.342Z,14.34
2022-10-30T20:28:37.113Z,14.34
2022-10-30T20:31:05.466Z,14.25
2022-10-30T20:33:33.045Z,14.32
2022-10-30T20:36:00.602Z,14.30
2022-10-30T20:38:30.398Z,14.26
2022-10-30T20:40:59.625Z,14.29
2022-10-30T20:43:30.695Z,14.28
2022-10-30T20:46:00.502Z,14.30
2022-10-30T20:48:29.149Z,14.27
2022-10-30T20:50:58.914Z,14.23
2022-10-30T20:53:26.488Z,14.15
2022-10-30T20:55:54.227Z,14.17
2022-10-30T20:58:21.849Z,14.22
2022-10-30T21:00:49.927Z,14.26
2022-10-30T21:03:18.835Z,14.01
2022-10-30T21:05:46.728Z,14.03
2022-10-30T21:08:14.712Z,14.03
2022-10-30T21:10:42.586Z,14.09
2022-10-30T21:13:11.409Z,13.99
2022-10-30T21:15:39.553Z,13.99
2022-10-30T21:18:07.347Z,13.98
2022-10-30T21:20:36.854Z,13.91
2022-10-30T21:23:04.500Z,13.91
2022-10-30T21:25:32.771Z,14.01
2022-10-30T21:28:00.534Z,14.00
2022-10-30T21:30:28.190Z,14.03
2022-10-30T21:32:55.735Z,14.09
2022-10-30T21:35:23.281Z,14.00
2022-10-30T21:37:52.177Z,14.12
2022-10-30T21:40:19.718Z,14.20
2022-10-30T21:42:48.524Z,14.20
2022-10-30T21:45:16.061Z,14.13
2022-10-30T21:47:43.596Z,14.02
2022-10-30T21:50:12.555Z,13.91
2022-10-30T21:52:40.388Z,13.90
2022-10-30T21:55:10.033Z,13.85
2022-10-30T21:57:37.556Z,13.80
2022-10-30T22:00:07.336Z,13.80
2022-10-30T22:02:35.159Z,13.74
2022-10-30T22:05:02.762Z,13.78
2022-10-30T22:07:30.333Z,13.72
2022-10-30T22:09:57.869Z,13.69
2022-10-30T22:12:26.760Z,13.67
2022-10-30T22:14:54.273Z,13.73
2022-10-30T22:17:21.915Z,13.63
2022-10-30T22:19:49.415Z,13.65
2022-10-30T22:22:16.910Z,13.59
2022-10-30T22:24:44.440Z,13.59
2022-10-30T22:27:11.955Z,13.46
2022-10-30T22:29:40.854Z,13.39
2022-10-30T22:32:08.393Z,13.44
2022-10-30T22:34:35.910Z,13.44
2022-10-30T22:37:03.429Z,13.41
2022-10-30T22:39:30.998Z,13.42
2022-10-30T22:41:58.502Z,13.37
2022-10-30T22:44:26.023Z,13.41
2022-10-30T22:46:54.883Z,13.18
2022-10-30T22:49:22.394Z,13.24
2022-10-30T22:51:49.888Z,13.19
2022-10-30T22:54:17.400Z,13.18
2022-10-30T22:56:44.923Z,13.16
2022-10-30T22:59:14.219Z,13.11
2022-10-30T23:01:42.238Z,13.08
2022-10-30T23:04:13.987Z,13.10
2022-10-30T23:06:41.775Z,13.12
2022-10-30T23:09:15.471Z,13.07
2022-10-30T23:11:43.008Z,13.03
2022-10-30T23:14:10.526Z,12.98
2022-10-30T23:16:38.166Z,13.00
2022-10-30T23:19:05.705Z,12.92
2022-10-30T23:21:35.027Z,12.85
2022-10-30T23:24:04.126Z,12.88
2022-10-30T23:26:33.342Z,12.91
2022-10-30T23:29:01.635Z,12.94
2022-10-30T23:31:32.308Z,12.85
2022-10-30T23:34:01.707Z,12.80
2022-10-30T23:36:29.746Z,12.77
2022-10-30T23:39:00.577Z,12.76
2022-10-30T23:41:30.255Z,12.71
2022-10-30T23:43:59.770Z,12.71
2022-10-30T23:46:28.354Z,12.73
2022-10-30T23:48:56.472Z,12.78
2022-10-30T23:51:24.919Z,12.72
2022-10-30T23:53:52.725Z,12.73
2022-10-30T23:56:21.675Z,12.64
2022-10-30T23:58:50.981Z,12.60
